createdAt,value
2022-10-17T06:33:30.000Z,0.008789
2022-10-17T06:33:50.000Z,14.944336
2022-10-17T06:34:11.000Z,10.621094
2022-10-17T06:34:31.000Z,12.683594
2022-10-17T06:34:51.000Z,11.773438
2022-10-17T06:35:11.000Z,11.061523
2022-10-17T06:35:32.000Z,14.907227
2022-10-17T06:35:52.000Z,20.406250
2022-10-17T06:36:12.000Z,19.959961
2022-10-17T06:36:32.000Z,15.441406
2022-10-17T06:36:53.000Z,13.711914
2022-10-17T06:37:13.000Z,15.446289
2022-10-17T06:37:33.000Z,14.166016
2022-10-17T06:37:54.000Z,20.400391
2022-10-17T06:38:14.000Z,25.491211
2022-10-17T06:38:34.000Z,15.817383
2022-10-17T06:38:54.000Z,24.498047
2022-10-17T06:39:15.000Z,20.203125
2022-10-17T06:39:35.000Z,22.510742
2022-10-17T06:39:55.000Z,14.986328
2022-10-17T06:40:15.000Z,16.084961
2022-10-17T06:40:36.000Z,8.820312
2022-10-17T06:40:56.000Z,0.906250
2022-10-17T06:41:16.000Z,14.707031
2022-10-17T06:41:36.000Z,31.287109
2022-10-17T06:41:57.000Z,13.439453
2022-10-17T06:42:17.000Z,18.146484
2022-10-17T06:42:37.000Z,19.044922
2022-10-17T06:42:57.000Z,21.756836
2022-10-17T06:43:18.000Z,13.408203
2022-10-17T06:43:38.000Z,2.013672
2022-10-17T06:43:58.000Z,18.253906
2022-10-17T06:44:18.000Z,9.041992
2022-10-17T13:29:30.000Z,0.125000
2022-10-17T13:29:50.000Z,8.864258
2022-10-17T13:30:15.000Z,19.913086
2022-10-17T13:30:46.000Z,3.821289
2022-10-17T13:31:07.000Z,15.544922
2022-10-17T13:31:27.000Z,12.056641
2022-10-17T13:31:53.000Z,8.335938
2022-10-17T13:32:45.000Z,0.552734
2022-10-17T13:33:05.000Z,15.322266
2022-10-17T13:33:25.000Z,17.000977
2022-10-17T13:33:45.000Z,17.065430
2022-10-17T13:34:06.000Z,16.436523
2022-10-17T13:34:26.000Z,13.332031
2022-10-17T13:34:46.000Z,16.184570
2022-10-17T13:35:06.000Z,19.545898
2022-10-17T13:35:27.000Z,23.256836
2022-10-17T13:35:47.000Z,16.393555
2022-10-17T13:36:07.000Z,15.596680
2022-10-17T13:36:28.000Z,13.291016
2022-10-17T13:36:48.000Z,12.258789
2022-10-17T13:37:08.000Z,14.483398
2022-10-17T13:37:28.000Z,13.527344
2022-10-17T13:37:49.000Z,12.481445
2022-10-17T13:38:09.000Z,15.523438
2022-10-17T13:38:29.000Z,15.913086
2022-10-17T13:38:49.000Z,13.619141
2022-10-17T13:39:10.000Z,15.438477
2022-10-17T13:39:30.000Z,14.133789
2022-10-17T13:39:50.000Z,15.280273
2022-10-17T13:40:10.000Z,15.671875
2022-10-17T13:40:31.000Z,13.804688
2022-10-17T13:40:51.000Z,16.291016
2022-10-17T13:41:11.000Z,15.994141
2022-10-17T13:41:31.000Z,14.528320
2022-10-17T13:41:52.000Z,12.441406
2022-10-17T13:42:12.000Z,10.137695
2022-10-17T13:42:32.000Z,13.048828
2022-10-17T13:42:52.000Z,22.017578
2022-10-17T13:43:13.000Z,18.163086
2022-10-17T13:43:33.000Z,2.333008
2022-10-17T13:43:53.000Z,0.824219
2022-10-17T13:44:14.000Z,13.645508
2022-10-17T13:44:34.000Z,18.796875
2022-10-17T13:44:54.000Z,17.432617
2022-10-17T13:45:14.000Z,18.424805
2022-10-17T13:45:35.000Z,17.846680
2022-10-17T13:45:55.000Z,20.906250
2022-10-17T13:46:15.000Z,15.548828
2022-10-17T13:46:35.000Z,13.695312
2022-10-17T13:46:56.000Z,15.808594
2022-10-17T13:47:16.000Z,15.992188
2022-10-17T13:47:36.000Z,18.106445
2022-10-17T13:47:57.000Z,12.741211
2022-10-17T13:48:17.000Z,18.125000
2022-10-17T13:48:37.000Z,17.223633
2022-10-17T13:48:57.000Z,10.504883
2022-10-17T13:49:18.000Z,7.632812
2022-10-17T13:49:38.000Z,16.611328
2022-10-17T13:49:58.000Z,17.376953
2022-10-17T13:50:18.000Z,13.152344
2022-10-17T13:50:39.000Z,13.711914
2022-10-17T13:50:59.000Z,16.501953
2022-10-17T13:51:19.000Z,12.032227
2022-10-17T13:51:40.000Z,0.075195
2022-10-17T13:52:00.000Z,0.081055
2022-10-17T13:52:20.000Z,0.086914
2022-10-17T13:52:20.000Z,1.743164
2022-10-17T14:01:55.000Z,0.106445
2022-10-17T14:02:15.000Z,0.102539
2022-10-17T14:02:35.000Z,0.365234
2022-10-17T14:02:55.000Z,3.250977
2022-10-17T14:03:16.000Z,0.138672
2022-10-17T14:03:36.000Z,0.109375
2022-10-17T14:03:56.000Z,0.124023
2022-10-17T14:04:05.000Z,1.431641
2022-10-17T14:13:02.000Z,0.099609
2022-10-17T14:13:23.000Z,0.093750
2022-10-17T14:13:43.000Z,0.084961
2022-10-17T14:13:52.000Z,1.194336
2022-10-17T14:22:44.000Z,0.075195
2022-10-17T14:23:04.000Z,0.070312
2022-10-17T14:23:24.000Z,0.075195
2022-10-17T14:23:34.000Z,1.220703
2022-10-17T14:32:33.000Z,0.063477
2022-10-17T14:32:53.000Z,0.060547
2022-10-17T14:33:14.000Z,0.083008
2022-10-17T14:33:23.000Z,1.140625
2022-10-17T14:42:13.000Z,0.068359
2022-10-17T14:42:34.000Z,0.081055
2022-10-17T14:42:54.000Z,0.075195
2022-10-17T14:43:04.000Z,1.170898
2022-10-17T14:52:08.000Z,0.056641
2022-10-17T14:52:28.000Z,0.073242
2022-10-17T14:52:49.000Z,0.067383
2022-10-17T14:52:58.000Z,1.878906
2022-10-17T14:59:29.000Z,7.182617
2022-10-17T14:59:50.000Z,17.086914
2022-10-17T15:00:10.000Z,0.180664
2022-10-17T15:00:30.000Z,0.102539
2022-10-17T15:00:50.000Z,0.110352
2022-10-17T15:01:00.000Z,1.612305
2022-10-17T15:09:54.000Z,0.119141
2022-10-17T15:10:14.000Z,0.039062
2022-10-17T15:10:35.000Z,0.119141
2022-10-17T15:10:54.000Z,2.390625
2022-10-17T15:19:56.000Z,16.653320
2022-10-17T15:20:16.000Z,0.141602
2022-10-17T15:20:37.000Z,0.135742
2022-10-17T15:20:57.000Z,0.127930
2022-10-17T15:21:06.000Z,1.654297
2022-10-17T15:30:14.000Z,0.125000
2022-10-17T15:30:34.000Z,0.123047
2022-10-17T15:30:54.000Z,0.136719
2022-10-17T15:31:04.000Z,1.732422
2022-10-17T15:40:38.000Z,0.125000
2022-10-17T15:40:58.000Z,0.118164
2022-10-17T15:41:19.000Z,0.135742
2022-10-17T15:41:28.000Z,1.756836
2022-10-17T15:51:03.000Z,0.112305
2022-10-17T15:51:23.000Z,0.128906
2022-10-17T15:51:43.000Z,0.139648
2022-10-17T15:51:53.000Z,1.707031
